Time;durP1;ratioP1;P1;durP2;ratioP2;P2;SDS_P1;SDS_P2;PMS_P1;PMS_P2;Temp;Humidity;BMP_temperature;BMP_pressure;BME280_temperature;BME280_humidity;BME280_pressure;Samples;Min_cycle;Max_cycle;Signal;HPM_P1;HPM_P2
2021/07/28 00:00:10;;;;;;;6.80;4.15;;;23.10;70.50;;;;;;5095302;28;20028;-69
2021/07/28 00:02:42;;;;;;;7.72;4.05;;;23.00;70.50;;;;;;5091421;28;20089;-69
2021/07/28 00:05:09;;;;;;;7.15;3.72;;;23.00;70.50;;;;;;5094527;28;20063;-69
2021/07/28 00:07:35;;;;;;;7.25;3.90;;;23.00;70.40;;;;;;5094350;28;20520;-69
2021/07/28 00:10:00;;;;;;;8.82;3.42;;;23.00;70.20;;;;;;5092713;28;20028;-69
2021/07/28 00:12:29;;;;;;;7.32;4.00;;;22.90;70.00;;;;;;5094993;28;20048;-69
2021/07/28 00:14:55;;;;;;;12.75;4.18;;;22.90;70.40;;;;;;5094025;28;20055;-69
2021/07/28 00:17:20;;;;;;;8.10;4.05;;;22.80;70.30;;;;;;5094154;28;20372;-69
2021/07/28 00:20:12;;;;;;;16.75;4.40;;;22.80;70.40;;;;;;5093588;28;20395;-69
2021/07/28 00:25:21;;;;;;;11.30;4.40;;;22.70;70.60;;;;;;5092776;28;20107;-69
2021/07/28 00:27:49;;;;;;;10.82;4.35;;;22.70;70.70;;;;;;5094516;28;20124;-69
2021/07/28 00:30:16;;;;;;;9.93;3.50;;;22.70;70.80;;;;;;5093786;28;20413;-69
2021/07/28 00:32:42;;;;;;;9.18;3.95;;;22.70;70.40;;;;;;5093616;28;20024;-69
2021/07/28 00:35:08;;;;;;;14.95;3.95;;;22.70;70.40;;;;;;5094390;28;20070;-69
2021/07/28 00:37:34;;;;;;;9.30;4.25;;;22.60;70.60;;;;;;5092823;28;20031;-69
2021/07/28 00:40:00;;;;;;;11.48;4.63;;;22.60;71.00;;;;;;5093758;28;20123;-69
2021/07/28 00:42:26;;;;;;;7.38;4.55;;;22.60;71.00;;;;;;5093837;28;20032;-69
2021/07/28 00:44:52;;;;;;;9.65;4.85;;;22.50;71.10;;;;;;5094507;28;20031;-69
2021/07/28 00:47:18;;;;;;;8.93;4.25;;;22.50;71.20;;;;;;5092905;28;20035;-69
2021/07/28 00:49:44;;;;;;;9.95;4.72;;;22.50;71.30;;;;;;5093868;28;20028;-69
2021/07/28 00:52:10;;;;;;;9.15;4.60;;;22.40;71.50;;;;;;5093051;28;20092;-69
2021/07/28 00:54:36;;;;;;;11.98;5.38;;;22.40;71.50;;;;;;5093620;28;20043;-69
2021/07/28 00:57:02;;;;;;;9.15;4.40;;;22.40;71.50;;;;;;5093888;28;20380;-69
2021/07/28 00:59:28;;;;;;;13.05;4.78;;;22.40;71.40;;;;;;5088649;28;20490;-69
2021/07/28 01:01:54;;;;;;;7.97;4.18;;;22.30;71.50;;;;;;5087555;28;20103;-69
2021/07/28 01:04:20;;;;;;;9.55;3.92;;;22.30;71.40;;;;;;5092462;28;20203;-69
2021/07/28 01:06:46;;;;;;;9.95;5.15;;;22.20;71.40;;;;;;5090340;28;20052;-70
2021/07/28 01:09:12;;;;;;;8.20;4.65;;;22.20;71.60;;;;;;5093398;28;20081;-69
2021/07/28 01:11:38;;;;;;;9.40;3.50;;;22.20;71.40;;;;;;5092902;28;20433;-69
2021/07/28 01:14:05;;;;;;;6.13;3.83;;;22.20;71.30;;;;;;5092685;28;20054;-69
2021/07/28 01:16:36;;;;;;;14.05;5.13;;;22.10;71.20;;;;;;5092998;28;20031;-69
2021/07/28 01:19:05;;;;;;;14.48;5.53;;;22.10;71.70;;;;;;5093040;28;20035;-69
2021/07/28 01:21:31;;;;;;;17.63;4.13;;;22.10;72.10;;;;;;5092393;28;20067;-69
2021/07/28 01:23:57;;;;;;;12.15;5.65;;;22.10;71.80;;;;;;5093130;28;20055;-69
2021/07/28 01:26:24;;;;;;;12.85;5.07;;;22.00;72.10;;;;;;5092687;28;20161;-69
2021/07/28 01:28:50;;;;;;;11.60;4.90;;;21.90;72.00;;;;;;5092463;28;20026;-69
2021/07/28 01:31:17;;;;;;;12.65;6.05;;;22.00;72.10;;;;;;5091284;28;20032;-69
2021/07/28 01:33:45;;;;;;;6.72;3.67;;;21.90;72.30;;;;;;5093023;28;20516;-69
2021/07/28 01:36:17;;;;;;;11.20;5.53;;;21.90;72.00;;;;;;5092469;28;20108;-69
2021/07/28 01:38:43;;;;;;;12.10;5.95;;;21.90;72.40;;;;;;5090643;28;20039;-69
2021/07/28 01:41:09;;;;;;;12.82;5.60;;;21.80;72.40;;;;;;5093093;28;20031;-69
2021/07/28 01:43:36;;;;;;;13.57;6.68;;;21.80;72.50;;;;;;5091276;28;20032;-69
2021/07/28 01:46:03;;;;;;;14.95;6.80;;;21.80;72.70;;;;;;5093122;28;20047;-69
2021/07/28 01:48:29;;;;;;;12.93;7.45;;;21.80;72.90;;;;;;5091685;28;20039;-69
2021/07/28 01:50:55;;;;;;;12.68;5.65;;;21.80;73.00;;;;;;5092936;28;20027;-69
2021/07/28 01:53:23;;;;;;;11.00;5.93;;;21.80;73.00;;;;;;5087766;28;20033;-70
2021/07/28 01:55:49;;;;;;;14.45;6.65;;;21.80;72.90;;;;;;5088665;28;20078;-69
2021/07/28 01:58:15;;;;;;;9.77;6.22;;;21.80;72.90;;;;;;5089876;28;20020;-69
2021/07/28 02:00:41;;;;;;;14.45;6.22;;;21.70;72.70;;;;;;5087285;28;20580;-69
2021/07/28 02:03:07;;;;;;;13.35;6.65;;;21.70;72.80;;;;;;5091242;28;20024;-69
2021/07/28 02:05:37;;;;;;;14.20;6.47;;;21.70;72.90;;;;;;5089848;28;20046;-68
2021/07/28 02:08:06;;;;;;;16.17;6.78;;;21.70;73.00;;;;;;5092995;28;20028;-69
2021/07/28 02:10:41;;;;;;;15.43;7.40;;;21.70;72.80;;;;;;5090729;28;20544;-68
2021/07/28 02:13:07;;;;;;;15.90;8.90;;;21.70;72.90;;;;;;5092883;28;20016;-69
2021/07/28 02:15:35;;;;;;;20.40;8.82;;;21.60;73.30;;;;;;5092447;28;20499;-69
2021/07/28 02:18:02;;;;;;;14.20;7.72;;;21.60;73.50;;;;;;5091030;28;20024;-69
2021/07/28 02:20:28;;;;;;;9.45;5.20;;;21.50;73.20;;;;;;5092357;28;20032;-70
2021/07/28 02:22:55;;;;;;;9.77;5.55;;;21.50;72.80;;;;;;5091549;28;20031;-69
2021/07/28 02:25:21;;;;;;;7.38;3.75;;;21.50;73.50;;;;;;5090672;28;20024;-69
2021/07/28 02:27:47;;;;;;;14.35;7.22;;;21.50;72.70;;;;;;5087351;28;20035;-69
2021/07/28 02:30:16;;;;;;;8.82;5.22;;;21.50;73.20;;;;;;5092292;28;20042;-69
2021/07/28 02:32:43;;;;;;;15.48;6.72;;;21.40;73.20;;;;;;5091317;28;20028;-69
2021/07/28 02:35:09;;;;;;;21.17;6.95;;;21.30;73.60;;;;;;5090825;28;20119;-69
2021/07/28 02:37:36;;;;;;;25.05;10.10;;;21.30;73.70;;;;;;5091532;28;20032;-68
2021/07/28 02:40:03;;;;;;;14.02;8.05;;;21.30;74.60;;;;;;5091186;28;20544;-69
2021/07/28 02:42:28;;;;;;;22.67;10.55;;;21.20;74.50;;;;;;5092021;28;20027;-68
2021/07/28 02:44:54;;;;;;;16.13;8.80;;;21.20;74.70;;;;;;5091710;28;20032;-69
2021/07/28 02:47:20;;;;;;;16.50;9.60;;;21.30;74.60;;;;;;5091595;28;20034;-69
2021/07/28 02:49:45;;;;;;;22.30;10.13;;;21.30;74.80;;;;;;5091897;28;20023;-69
2021/07/28 02:52:11;;;;;;;16.48;9.27;;;21.20;74.80;;;;;;5090607;28;20063;-69
2021/07/28 02:54:37;;;;;;;17.83;9.55;;;21.30;74.40;;;;;;5091904;28;20073;-68
2021/07/28 02:57:03;;;;;;;21.58;10.20;;;21.30;74.20;;;;;;5091944;28;20048;-69
2021/07/28 02:59:28;;;;;;;15.15;8.23;;;21.20;74.50;;;;;;5090615;28;20067;-69
2021/07/28 03:01:54;;;;;;;20.05;11.55;;;21.30;74.40;;;;;;5091823;28;20055;-69
2021/07/28 03:04:20;;;;;;;21.38;10.95;;;21.30;74.60;;;;;;5091905;28;20032;-69
2021/07/28 03:06:47;;;;;;;21.67;10.52;;;21.30;74.60;;;;;;5091024;28;20055;-69
2021/07/28 03:09:13;;;;;;;17.15;9.10;;;21.30;74.70;;;;;;5083238;28;20159;-68
2021/07/28 03:11:39;;;;;;;23.35;9.60;;;21.20;74.20;;;;;;5091807;28;20072;-68
2021/07/28 03:14:05;;;;;;;17.55;8.35;;;21.30;74.20;;;;;;5090304;28;20047;-69
2021/07/28 03:16:31;;;;;;;14.07;8.73;;;21.20;74.00;;;;;;5091545;28;20365;-68
2021/07/28 03:18:57;;;;;;;16.85;7.88;;;21.20;74.10;;;;;;5092078;28;20036;-69
2021/07/28 03:21:23;;;;;;;16.80;8.43;;;21.20;74.10;;;;;;5090336;28;20471;-69
2021/07/28 03:23:49;;;;;;;18.42;9.57;;;21.20;74.10;;;;;;5096364;28;20111;-69
2021/07/28 03:26:16;;;;;;;19.77;10.75;;;21.20;74.30;;;;;;5095008;28;20035;-69
2021/07/28 03:28:42;;;;;;;20.88;10.20;;;21.20;74.80;;;;;;5095554;28;20110;-69
2021/07/28 03:31:07;;;;;;;19.45;9.93;;;21.20;74.80;;;;;;5094691;28;20444;-69
2021/07/28 03:33:33;;;;;;;17.27;8.98;;;21.10;74.80;;;;;;5095997;28;20106;-68
2021/07/28 03:35:59;;;;;;;19.73;9.82;;;21.10;74.80;;;;;;5094366;28;20024;-69
2021/07/28 03:38:27;;;;;;;21.63;10.20;;;21.10;75.00;;;;;;5094445;28;20742;-68
2021/07/28 03:40:53;;;;;;;19.73;9.65;;;21.10;74.80;;;;;;5094908;28;20506;-69
2021/07/28 03:43:19;;;;;;;17.15;9.60;;;21.10;75.00;;;;;;5094661;28;20024;-68
2021/07/28 03:45:44;;;;;;;21.27;11.20;;;21.10;74.80;;;;;;5095488;28;20066;-69
2021/07/28 03:48:10;;;;;;;16.90;10.30;;;21.00;74.80;;;;;;5094683;28;20105;-68
2021/07/28 03:50:36;;;;;;;16.20;10.02;;;21.10;75.20;;;;;;5094647;28;20027;-68
2021/07/28 03:53:02;;;;;;;17.70;8.70;;;21.00;75.20;;;;;;5095666;28;20364;-69
2021/07/28 03:55:28;;;;;;;16.70;6.32;;;21.10;75.10;;;;;;5093755;28;20042;-69
2021/07/28 03:57:54;;;;;;;19.83;9.50;;;21.00;74.70;;;;;;5095648;28;20398;-69
2021/07/28 04:00:20;;;;;;;13.68;8.32;;;21.00;74.90;;;;;;5094841;28;20028;-69
2021/07/28 04:02:47;;;;;;;15.38;8.10;;;21.00;75.00;;;;;;5087921;28;20027;-68
2021/07/28 04:05:13;;;;;;;16.48;9.20;;;21.00;75.40;;;;;;5094102;28;20032;-69
2021/07/28 04:07:39;;;;;;;18.10;9.95;;;20.90;75.00;;;;;;5094382;28;20024;-69
2021/07/28 04:10:05;;;;;;;17.00;9.48;;;20.90;75.20;;;;;;5093678;28;20493;-69
2021/07/28 04:12:31;;;;;;;19.70;9.80;;;20.90;75.00;;;;;;5093670;28;20055;-69
2021/07/28 04:14:56;;;;;;;18.88;8.80;;;20.90;75.10;;;;;;5094718;28;20048;-69
2021/07/28 04:17:22;;;;;;;19.75;7.60;;;20.90;74.80;;;;;;5093297;28;20032;-69
2021/07/28 04:19:51;;;;;;;20.08;9.07;;;20.90;74.60;;;;;;5094954;28;20161;-68
2021/07/28 04:22:18;;;;;;;17.60;10.00;;;20.80;74.60;;;;;;5094000;28;20115;-68
2021/07/28 04:24:45;;;;;;;19.40;9.20;;;20.80;75.00;;;;;;5093799;28;20028;-69
2021/07/28 04:27:10;;;;;;;15.35;8.88;;;20.80;75.00;;;;;;5094487;28;20111;-69
2021/07/28 04:29:36;;;;;;;19.00;10.10;;;20.80;74.90;;;;;;5093681;28;20111;-69
2021/07/28 04:32:02;;;;;;;18.95;9.88;;;20.80;75.20;;;;;;5093577;28;20043;-69
2021/07/28 04:34:28;;;;;;;17.75;9.77;;;20.80;75.40;;;;;;5094138;28;20166;-69
2021/07/28 04:36:53;;;;;;;22.42;8.27;;;20.80;75.30;;;;;;5094403;28;20024;-68
2021/07/28 04:39:19;;;;;;;19.58;8.35;;;20.70;75.00;;;;;;5093979;28;20043;-68
2021/07/28 04:41:47;;;;;;;17.45;7.53;;;20.80;74.80;;;;;;5093384;28;20024;-69
2021/07/28 04:44:13;;;;;;;18.60;9.30;;;20.70;74.80;;;;;;5094024;28;20032;-69
2021/07/28 04:46:39;;;;;;;19.75;8.55;;;20.70;75.00;;;;;;5093273;28;20077;-69
2021/07/28 04:49:04;;;;;;;20.85;10.80;;;20.70;75.00;;;;;;5094435;28;20106;-69
2021/07/28 04:51:33;;;;;;;17.20;8.63;;;20.60;75.40;;;;;;5093223;28;20032;-69
2021/07/28 04:53:58;;;;;;;16.65;9.02;;;20.60;75.10;;;;;;5093527;28;20035;-69
2021/07/28 04:56:24;;;;;;;12.05;5.95;;;20.60;75.20;;;;;;5094038;28;20036;-69
2021/07/28 04:58:50;;;;;;;22.20;10.75;;;20.60;74.90;;;;;;5092902;28;20027;-69
2021/07/28 05:01:16;;;;;;;11.38;6.20;;;20.60;75.90;;;;;;5090086;28;20036;-68
2021/07/28 05:03:41;;;;;;;17.10;10.75;;;20.50;75.20;;;;;;5090143;28;20112;-68
2021/07/28 05:06:07;;;;;;;17.77;9.55;;;20.50;75.70;;;;;;5092180;28;20084;-69
2021/07/28 05:08:33;;;;;;;18.95;9.48;;;20.50;75.80;;;;;;5088236;28;20025;-69
2021/07/28 05:10:58;;;;;;;15.38;8.98;;;20.50;75.70;;;;;;5086226;28;20540;-69
2021/07/28 05:13:24;;;;;;;11.82;7.45;;;20.50;75.60;;;;;;5093333;28;20107;-68
2021/07/28 05:15:53;;;;;;;8.23;4.57;;;20.40;75.60;;;;;;5093164;28;20121;-69
2021/07/28 05:18:19;;;;;;;18.13;9.60;;;20.40;75.20;;;;;;5093891;28;20543;-68
2021/07/28 05:20:45;;;;;;;17.33;8.52;;;20.50;75.90;;;;;;5092317;28;20107;-69
2021/07/28 05:23:11;;;;;;;16.52;9.23;;;20.40;76.00;;;;;;5093322;28;20028;-69
2021/07/28 05:25:36;;;;;;;12.40;6.63;;;20.40;76.30;;;;;;5093163;28;20130;-68
2021/07/28 05:28:02;;;;;;;19.80;8.48;;;20.40;76.10;;;;;;5092561;28;20039;-69
2021/07/28 05:30:28;;;;;;;13.43;6.05;;;20.40;76.80;;;;;;5093202;28;20028;-68
2021/07/28 05:32:54;;;;;;;14.20;7.45;;;20.40;76.40;;;;;;5092174;28;20028;-69
2021/07/28 05:35:20;;;;;;;17.45;6.63;;;20.40;76.60;;;;;;5093178;28;20237;-68
2021/07/28 05:37:45;;;;;;;11.32;5.75;;;20.40;76.60;;;;;;5091684;28;20445;-68
2021/07/28 05:40:12;;;;;;;10.10;5.28;;;20.30;76.40;;;;;;5092913;28;20036;-69
2021/07/28 05:42:38;;;;;;;11.57;6.97;;;20.40;76.70;;;;;;5092336;28;20028;-69
2021/07/28 05:45:04;;;;;;;17.55;8.25;;;20.40;77.40;;;;;;5091914;28;20050;-69
2021/07/28 05:47:30;;;;;;;15.45;7.25;;;20.30;77.50;;;;;;5092667;28;20028;-69
2021/07/28 05:49:58;;;;;;;13.20;7.53;;;20.30;77.50;;;;;;5092333;28;20039;-69
2021/07/28 05:52:24;;;;;;;11.30;5.65;;;20.30;77.90;;;;;;5092077;28;20031;-69
2021/07/28 05:54:49;;;;;;;8.13;4.50;;;20.30;77.70;;;;;;5092260;28;20513;-69
2021/07/28 05:57:15;;;;;;;9.52;4.15;;;20.30;78.00;;;;;;5091866;28;20024;-68
2021/07/28 05:59:41;;;;;;;17.02;9.10;;;20.30;78.00;;;;;;5092568;28;20050;-68
2021/07/28 06:02:06;;;;;;;20.67;10.48;;;20.30;79.00;;;;;;5091553;28;20456;-68
2021/07/28 06:04:32;;;;;;;11.10;6.10;;;20.30;79.70;;;;;;5092442;28;20034;-68
2021/07/28 06:06:58;;;;;;;14.93;8.90;;;20.20;78.50;;;;;;5092516;28;20371;-69
2021/07/28 06:09:24;;;;;;;14.55;6.43;;;20.30;79.50;;;;;;5092038;28;20495;-69
2021/07/28 06:11:49;;;;;;;13.18;7.22;;;20.30;79.20;;;;;;5091895;28;20113;-69
2021/07/28 06:14:15;;;;;;;12.02;5.95;;;20.30;79.10;;;;;;5091762;28;20510;-69
2021/07/28 06:16:40;;;;;;;12.55;6.28;;;20.30;79.50;;;;;;5092126;28;20497;-70
2021/07/28 06:19:06;;;;;;;13.43;7.95;;;20.30;79.20;;;;;;5092069;28;20024;-70
2021/07/28 06:21:32;;;;;;;19.08;8.43;;;20.40;79.50;;;;;;5092079;28;20472;-72
2021/07/28 06:24:00;;;;;;;14.77;8.07;;;20.50;79.60;;;;;;5091424;28;20028;-72
2021/07/28 06:26:26;;;;;;;16.65;8.75;;;20.50;79.50;;;;;;5092238;28;20043;-72
2021/07/28 06:28:52;;;;;;;19.17;9.20;;;20.50;79.60;;;;;;5092297;28;20043;-73
2021/07/28 06:31:17;;;;;;;20.98;7.95;;;20.60;79.70;;;;;;5090671;28;20024;-71
2021/07/28 06:33:43;;;;;;;11.82;7.95;;;20.60;79.20;;;;;;5091984;28;20523;-71
2021/07/28 06:36:09;;;;;;;14.43;8.63;;;20.60;79.00;;;;;;5091429;28;20479;-70
2021/07/28 06:38:34;;;;;;;13.32;7.00;;;20.60;79.00;;;;;;5091078;28;20095;-70
2021/07/28 06:41:00;;;;;;;11.90;7.22;;;20.70;78.60;;;;;;5090891;28;20035;-69
2021/07/28 06:43:26;;;;;;;15.18;8.70;;;20.70;78.60;;;;;;5090396;28;20025;-69
2021/07/28 06:45:59;;;;;;;16.50;7.63;;;20.70;79.00;;;;;;5090451;28;20126;-69
2021/07/28 06:48:25;;;;;;;12.60;7.38;;;20.70;79.00;;;;;;5090718;28;20056;-69
2021/07/28 06:50:51;;;;;;;14.23;7.38;;;20.80;78.70;;;;;;5090159;28;21396;-69
2021/07/28 06:53:17;;;;;;;13.38;6.88;;;20.80;78.90;;;;;;5090717;28;20107;-69
2021/07/28 06:55:42;;;;;;;15.07;7.47;;;20.80;78.80;;;;;;5090172;28;20115;-69
2021/07/28 06:58:08;;;;;;;16.33;9.95;;;20.80;78.80;;;;;;5091350;28;20467;-69
2021/07/28 07:00:33;;;;;;;10.88;6.15;;;20.80;79.30;;;;;;5090727;28;20028;-70
2021/07/28 07:02:59;;;;;;;15.50;8.55;;;20.90;78.70;;;;;;5089173;28;20092;-69
2021/07/28 07:05:26;;;;;;;16.52;10.18;;;20.90;78.70;;;;;;5090809;28;20039;-70
2021/07/28 07:07:52;;;;;;;16.63;6.10;;;20.90;79.30;;;;;;5081071;28;20031;-69
2021/07/28 07:10:18;;;;;;;8.75;3.70;;;20.90;78.70;;;;;;5090350;28;20028;-69
2021/07/28 07:12:44;;;;;;;11.90;6.75;;;20.90;78.40;;;;;;5090567;28;20061;-68
2021/07/28 07:15:10;;;;;;;20.98;8.63;;;20.90;79.50;;;;;;5092122;28;20128;-68
2021/07/28 07:17:36;;;;;;;12.13;7.32;;;20.90;80.20;;;;;;5090941;28;21494;-69
2021/07/28 07:20:02;;;;;;;12.05;6.32;;;20.90;80.20;;;;;;5090776;28;20070;-71
2021/07/28 07:22:27;;;;;;;16.02;9.07;;;20.90;79.90;;;;;;5090386;28;20040;-70
2021/07/28 07:24:53;;;;;;;12.35;5.80;;;20.90;80.80;;;;;;5090675;28;20020;-71
2021/07/28 07:27:18;;;;;;;8.23;4.60;;;20.80;80.50;;;;;;5091075;28;20016;-71
2021/07/28 07:29:46;;;;;;;11.32;6.57;;;20.80;80.60;;;;;;5090176;28;20016;-70
2021/07/28 07:32:12;;;;;;;9.82;4.35;;;20.80;80.70;;;;;;5091139;28;20028;-69
2021/07/28 07:34:38;;;;;;;7.63;4.75;;;20.80;80.30;;;;;;5090767;28;20044;-66
2021/07/28 07:37:03;;;;;;;10.60;4.65;;;20.90;80.60;;;;;;5089753;28;20502;-67
2021/07/28 07:39:30;;;;;;;15.10;7.15;;;20.90;80.90;;;;;;5090969;28;20028;-69
2021/07/28 07:41:56;;;;;;;18.67;8.13;;;20.90;81.10;;;;;;5089608;28;20035;-69
2021/07/28 07:44:21;;;;;;;8.27;5.50;;;20.90;81.50;;;;;;5089679;28;20119;-67
2021/07/28 07:46:47;;;;;;;6.05;3.53;;;20.90;80.90;;;;;;5091146;28;20055;-68
2021/07/28 07:49:12;;;;;;;16.35;9.23;;;20.90;81.00;;;;;;5090011;28;20031;-67
2021/07/28 07:51:38;;;;;;;15.55;7.35;;;20.90;81.70;;;;;;5091577;28;20028;-72
2021/07/28 07:54:04;;;;;;;12.85;6.75;;;21.00;81.50;;;;;;5089828;28;20039;-66
2021/07/28 07:56:29;;;;;;;5.63;3.03;;;21.00;81.40;;;;;;5090803;28;20522;-67
2021/07/28 07:58:55;;;;;;;17.05;7.05;;;21.00;81.20;;;;;;5090004;28;20024;-70
2021/07/28 08:01:21;;;;;;;10.77;6.18;;;21.10;81.90;;;;;;5089670;28;20032;-71
2021/07/28 08:03:47;;;;;;;7.13;4.25;;;21.00;81.90;;;;;;5089780;28;20024;-68
2021/07/28 08:06:13;;;;;;;6.90;4.00;;;21.10;81.60;;;;;;5090439;28;20088;-67
2021/07/28 08:08:41;;;;;;;15.45;9.30;;;21.10;81.50;;;;;;5087064;28;20021;-67
2021/07/28 08:11:09;;;;;;;11.43;5.78;;;21.10;82.00;;;;;;5094736;28;20055;-67
2021/07/28 08:13:34;;;;;;;14.02;4.85;;;21.10;81.50;;;;;;5093793;28;20036;-67
2021/07/28 08:16:01;;;;;;;11.75;7.10;;;21.20;81.40;;;;;;5093906;28;20035;-67
2021/07/28 08:18:27;;;;;;;13.85;8.40;;;21.20;81.40;;;;;;5094195;28;20472;-67
2021/07/28 08:20:52;;;;;;;11.73;7.22;;;21.20;81.70;;;;;;5094404;28;20032;-67
2021/07/28 08:23:18;;;;;;;12.45;8.38;;;21.30;81.60;;;;;;5093533;28;20028;-68
2021/07/28 08:25:43;;;;;;;10.80;6.47;;;21.30;81.70;;;;;;5094692;28;20035;-67
2021/07/28 08:28:12;;;;;;;10.25;5.65;;;21.40;81.30;;;;;;5094298;28;20035;-67
2021/07/28 08:30:39;;;;;;;14.25;4.18;;;21.40;81.30;;;;;;5094031;28;20028;-67
2021/07/28 08:33:05;;;;;;;8.70;3.60;;;21.40;81.30;;;;;;5093692;28;20059;-67
2021/07/28 08:35:30;;;;;;;10.63;5.32;;;21.40;81.40;;;;;;5094669;28;20043;-68
2021/07/28 08:37:56;;;;;;;11.68;6.18;;;21.30;81.70;;;;;;5093365;28;20031;-67
2021/07/28 08:40:22;;;;;;;14.55;8.05;;;21.40;82.00;;;;;;5092854;28;20028;-67
2021/07/28 08:42:54;;;;;;;6.38;4.13;;;21.40;82.30;;;;;;5094191;28;20039;-67
2021/07/28 08:45:19;;;;;;;8.85;6.10;;;21.50;81.80;;;;;;5090632;28;20451;-68
2021/07/28 08:47:45;;;;;;;8.98;2.35;;;21.50;81.90;;;;;;5093855;28;20063;-68
2021/07/28 08:50:14;;;;;;;7.95;3.10;;;21.60;81.40;;;;;;5093998;28;20027;-67
2021/07/28 08:52:41;;;;;;;17.15;5.97;;;21.60;81.20;;;;;;5093286;28;20487;-67
2021/07/28 08:55:07;;;;;;;5.72;3.50;;;21.50;81.20;;;;;;5093373;28;20372;-67
2021/07/28 08:57:34;;;;;;;6.80;3.30;;;21.60;81.10;;;;;;5093812;28;20081;-67
2021/07/28 09:00:01;;;;;;;5.53;2.53;;;21.60;81.10;;;;;;5093092;28;20039;-67
2021/07/28 09:02:28;;;;;;;4.95;3.10;;;21.60;81.00;;;;;;5094106;28;20024;-68
2021/07/28 09:04:54;;;;;;;5.68;3.13;;;21.60;80.90;;;;;;5093459;28;20074;-67
2021/07/28 09:07:23;;;;;;;5.25;2.08;;;21.60;80.80;;;;;;5093128;28;20113;-67
2021/07/28 09:09:55;;;;;;;3.03;2.17;;;21.60;80.60;;;;;;5087686;28;20340;-67
2021/07/28 09:12:32;;;;;;;5.20;3.47;;;21.60;80.50;;;;;;5091438;28;20499;-67
2021/07/28 09:15:02;;;;;;;8.73;4.80;;;21.60;80.50;;;;;;5093540;28;20480;-68
2021/07/28 09:17:29;;;;;;;9.45;5.32;;;21.60;80.70;;;;;;5091654;28;20089;-68
2021/07/28 09:19:56;;;;;;;6.53;3.55;;;21.60;80.70;;;;;;5092751;28;20055;-68
2021/07/28 09:22:22;;;;;;;8.93;5.28;;;21.70;80.80;;;;;;5093463;28;20028;-67
2021/07/28 09:25:17;;;;;;;3.70;2.42;;;21.70;80.90;;;;;;5093292;28;20103;-68
2021/07/28 09:27:47;;;;;;;5.63;3.50;;;21.80;80.70;;;;;;5092682;28;20024;-67
2021/07/28 09:30:16;;;;;;;6.57;3.83;;;21.80;80.70;;;;;;5092846;28;20035;-67
2021/07/28 09:32:56;;;;;;;3.88;3.13;;;21.90;80.50;;;;;;5092292;28;20033;-67
2021/07/28 09:35:50;;;;;;;6.13;3.45;;;22.00;80.20;;;;;;5092693;28;20436;-67
2021/07/28 09:38:42;;;;;;;7.97;5.30;;;22.00;80.10;;;;;;5093061;28;20495;-68
2021/07/28 09:41:23;;;;;;;13.60;6.65;;;22.00;80.00;;;;;;5090303;28;20131;-67
2021/07/28 09:43:53;;;;;;;8.80;4.25;;;22.10;79.80;;;;;;5091276;28;20038;-70
2021/07/28 09:46:20;;;;;;;18.25;5.15;;;22.20;79.60;;;;;;5090316;28;20118;-68
2021/07/28 09:48:46;;;;;;;7.32;4.22;;;22.20;79.60;;;;;;5090943;28;20020;-69
2021/07/28 09:51:44;;;;;;;7.18;3.80;;;22.20;79.40;;;;;;5090971;28;20502;-70
2021/07/28 09:54:12;;;;;;;12.05;4.80;;;22.30;79.00;;;;;;5084299;28;20036;-67
2021/07/28 09:56:52;;;;;;;5.93;3.22;;;22.30;78.80;;;;;;5089557;28;20111;-68
2021/07/28 09:59:19;;;;;;;3.83;2.33;;;22.40;78.80;;;;;;5092237;28;20020;-68
2021/07/28 10:01:46;;;;;;;6.25;3.08;;;22.40;78.60;;;;;;5090959;28;20036;-68
2021/07/28 10:04:13;;;;;;;5.55;2.92;;;22.40;78.50;;;;;;5092284;28;20522;-69
2021/07/28 10:06:43;;;;;;;7.20;2.50;;;22.40;78.50;;;;;;5091976;28;20115;-68
2021/07/28 10:09:16;;;;;;;5.78;3.40;;;22.40;78.50;;;;;;5089417;28;20099;-67
2021/07/28 10:11:46;;;;;;;8.63;2.70;;;22.40;78.10;;;;;;5091937;28;20056;-67
2021/07/28 10:14:17;;;;;;;4.20;2.03;;;22.50;78.00;;;;;;5091462;28;20364;-67
2021/07/28 10:16:43;;;;;;;4.75;2.25;;;22.50;77.90;;;;;;5091388;28;20024;-68
2021/07/28 10:19:10;;;;;;;4.30;2.80;;;22.50;77.40;;;;;;5092345;28;20143;-67
2021/07/28 10:21:37;;;;;;;10.05;4.15;;;22.50;77.10;;;;;;5090823;28;20039;-68
2021/07/28 10:24:04;;;;;;;3.35;2.30;;;22.50;77.00;;;;;;5091848;28;20110;-67
2021/07/28 10:26:42;;;;;;;7.13;4.30;;;22.60;77.00;;;;;;5091490;28;20038;-68
2021/07/28 10:29:09;;;;;;;4.57;2.58;;;22.50;76.70;;;;;;5084816;28;20042;-68
2021/07/28 10:31:44;;;;;;;11.63;5.53;;;22.60;76.90;;;;;;5091791;28;20090;-68
2021/07/28 10:34:30;;;;;;;5.40;3.25;;;22.60;76.60;;;;;;5084160;28;20036;-67
2021/07/28 10:37:07;;;;;;;3.97;2.40;;;22.70;76.70;;;;;;5091173;28;20031;-68
2021/07/28 10:39:50;;;;;;;4.15;2.63;;;22.80;76.70;;;;;;5091709;28;20067;-70
2021/07/28 10:42:39;;;;;;;3.10;1.88;;;22.90;76.20;;;;;;5091810;28;20038;-68
2021/07/28 10:45:09;;;;;;;6.72;2.72;;;22.80;75.80;;;;;;5088810;28;20041;-68
2021/07/28 10:47:48;;;;;;;4.90;2.55;;;22.90;75.50;;;;;;5091514;28;20020;-68
2021/07/28 10:50:26;;;;;;;5.57;2.30;;;22.90;75.50;;;;;;5088299;28;20147;-68
2021/07/28 10:52:58;;;;;;;3.25;2.00;;;22.90;75.00;;;;;;5090437;28;20030;-68
2021/07/28 10:55:27;;;;;;;4.47;3.17;;;22.90;75.10;;;;;;5091639;28;20052;-68
2021/07/28 10:57:53;;;;;;;8.02;2.83;;;22.90;74.70;;;;;;5091126;28;20032;-69
2021/07/28 11:00:37;;;;;;;5.32;2.85;;;22.90;75.00;;;;;;5091201;28;20039;-68
2021/07/28 11:03:06;;;;;;;4.82;2.75;;;22.90;75.10;;;;;;5089378;28;20471;-67
2021/07/28 11:05:40;;;;;;;5.65;2.25;;;22.90;75.00;;;;;;5090544;28;20052;-68
2021/07/28 11:08:05;;;;;;;5.93;2.70;;;22.90;75.10;;;;;;5088275;28;20085;-68
2021/07/28 11:10:32;;;;;;;11.23;3.63;;;22.90;74.50;;;;;;5090867;28;20032;-68
2021/07/28 11:12:58;;;;;;;5.20;2.22;;;22.90;74.40;;;;;;5089524;28;20064;-70
2021/07/28 11:15:24;;;;;;;4.30;3.13;;;22.90;74.70;;;;;;5091145;28;20083;-79
2021/07/28 11:17:55;;;;;;;5.55;1.80;;;22.90;75.10;;;;;;5091024;28;20059;-67
2021/07/28 11:20:34;;;;;;;5.75;3.97;;;22.90;75.40;;;;;;5090747;28;20111;-67
2021/07/28 11:23:21;;;;;;;8.35;4.10;;;22.90;75.50;;;;;;5089938;28;20035;-67
2021/07/28 11:25:48;;;;;;;5.50;3.22;;;22.90;75.70;;;;;;5088529;28;20040;-67
2021/07/28 11:28:17;;;;;;;2.40;1.58;;;22.90;75.90;;;;;;5089310;28;20055;-67
2021/07/28 11:30:43;;;;;;;4.07;2.35;;;22.90;75.90;;;;;;5090342;28;20032;-66
2021/07/28 11:33:13;;;;;;;2.72;1.75;;;22.90;75.50;;;;;;5089939;28;20383;-67
2021/07/28 11:35:43;;;;;;;4.93;2.65;;;22.90;75.10;;;;;;5091517;28;20040;-67
2021/07/28 11:38:20;;;;;;;9.35;4.70;;;22.90;75.10;;;;;;5091122;28;20048;-67
2021/07/28 11:40:57;;;;;;;8.40;4.95;;;22.90;75.10;;;;;;5090682;28;20027;-67
2021/07/28 11:43:27;;;;;;;3.45;2.08;;;23.00;75.20;;;;;;5091397;28;20075;-67
2021/07/28 11:45:54;;;;;;;1.17;1.05;;;23.00;75.10;;;;;;5093511;28;20016;-67
2021/07/28 11:48:29;;;;;;;5.72;2.70;;;23.00;74.70;;;;;;5093181;28;20032;-67
2021/07/28 11:50:55;;;;;;;4.90;2.40;;;23.00;74.60;;;;;;5094797;28;20111;-68
2021/07/28 11:53:25;;;;;;;3.00;1.75;;;23.00;74.10;;;;;;5093878;28;20115;-67
2021/07/28 11:55:55;;;;;;;3.78;2.22;;;23.00;74.30;;;;;;5095199;28;20036;-67
2021/07/28 11:58:21;;;;;;;3.83;2.20;;;23.00;73.70;;;;;;5094549;28;20039;-67
2021/07/28 12:00:49;;;;;;;2.35;1.85;;;22.90;73.30;;;;;;5094288;28;20082;-67
2021/07/28 12:03:24;;;;;;;1.88;1.60;;;22.90;73.30;;;;;;5092555;28;20099;-67
2021/07/28 12:06:00;;;;;;;2.08;1.30;;;22.90;73.50;;;;;;5094711;28;20064;-67
2021/07/28 12:08:34;;;;;;;8.57;2.00;;;22.90;73.70;;;;;;5091820;28;20028;-67
2021/07/28 12:11:10;;;;;;;2.15;1.60;;;22.90;73.80;;;;;;5094409;28;20052;-67
2021/07/28 12:13:40;;;;;;;1.67;1.20;;;22.90;73.70;;;;;;5094709;28;20509;-69
2021/07/28 12:16:06;;;;;;;2.95;1.48;;;22.90;73.40;;;;;;5092753;28;20122;-67
2021/07/28 12:18:38;;;;;;;4.00;1.58;;;22.90;73.00;;;;;;5094541;28;20133;-68
2021/07/28 12:21:04;;;;;;;3.33;1.80;;;22.80;73.00;;;;;;5094243;28;20086;-68
2021/07/28 12:23:30;;;;;;;4.78;1.85;;;22.80;73.20;;;;;;5094500;28;20032;-67
2021/07/28 12:25:56;;;;;;;3.42;2.00;;;22.90;73.70;;;;;;5093293;28;20088;-68
2021/07/28 12:28:22;;;;;;;3.83;1.95;;;22.90;73.30;;;;;;5093595;28;20056;-68
2021/07/28 12:30:56;;;;;;;7.60;2.08;;;22.90;73.20;;;;;;5094223;28;20050;-68
2021/07/28 12:33:25;;;;;;;3.33;1.23;;;22.90;73.60;;;;;;5093999;28;20475;-68
2021/07/28 12:35:57;;;;;;;4.97;1.48;;;22.90;73.90;;;;;;5093555;28;20081;-68
2021/07/28 12:38:26;;;;;;;3.90;1.73;;;22.90;73.80;;;;;;5092251;28;20043;-68
2021/07/28 12:40:57;;;;;;;25.52;2.75;;;22.90;73.40;;;;;;5094643;28;20306;-67
2021/07/28 12:43:36;;;;;;;4.80;1.90;;;23.00;73.50;;;;;;5085722;28;20113;-67
2021/07/28 12:46:04;;;;;;;2.47;1.75;;;23.00;73.60;;;;;;5089836;28;20100;-68